Time,TemperatureF,DewpointF,PressureIn,WindDirection,WindDirectionDegrees,WindSpeedMPH,WindSpeedGustMPH,Humidity,HourlyPrecipIn,Conditions,Clouds,dailyrainin,SoftwareType,DateUTC
2013-02-05 00:10:00,15.4,14.5,29.73,WNW,292,0.0,-999.0,96,-99.99,,,0.00,Acu-Link.com,2013-02-05 06:10:00,
2013-02-05 00:25:00,15.3,14.4,29.72,WNW,292,0.0,-999.0,96,-99.99,,,0.00,Acu-Link.com,2013-02-05 06:25:00,
2013-02-05 00:41:00,14.9,14.0,29.72,WNW,292,0.0,-999.0,96,-99.99,,,0.00,Acu-Link.com,2013-02-05 06:41:00,
2013-02-05 00:56:00,15.1,14.4,29.72,WNW,292,0.0,-999.0,97,-99.99,,,0.00,Acu-Link.com,2013-02-05 06:56:00,
2013-02-05 01:11:00,14.9,14.2,29.72,WNW,292,0.0,-999.0,97,-99.99,,,0.00,Acu-Link.com,2013-02-05 07:11:00,
2013-02-05 01:26:00,14.9,14.2,29.72,WNW,292,0.0,-999.0,97,-99.99,,,0.00,Acu-Link.com,2013-02-05 07:26:00,
2013-02-05 01:42:00,15.3,14.6,29.72,WNW,292,0.0,-999.0,97,-99.99,,,0.00,Acu-Link.com,2013-02-05 07:42:00,
2013-02-05 01:57:00,15.6,14.9,29.73,WNW,292,0.0,-999.0,97,-99.99,,,0.00,Acu-Link.com,2013-02-05 07:57:00,
2013-02-05 02:12:00,16.0,15.3,29.72,WNW,292,0.0,-999.0,97,-99.99,,,0.00,Acu-Link.com,2013-02-05 08:12:00,
2013-02-05 02:27:00,17.1,16.4,29.74,WNW,292,0.0,-999.0,97,-99.99,,,0.00,Acu-Link.com,2013-02-05 08:27:00,
2013-02-05 02:43:00,17.8,17.1,29.71,WNW,292,0.0,-999.0,97,-99.99,,,0.00,Acu-Link.com,2013-02-05 08:43:00,
2013-02-05 02:58:00,18.5,17.8,29.70,WNW,292,0.0,-999.0,97,-99.99,,,0.00,Acu-Link.com,2013-02-05 08:58:00,
2013-02-05 03:13:00,18.7,18.0,29.70,WNW,292,0.0,-999.0,97,-99.99,,,0.00,Acu-Link.com,2013-02-05 09:13:00,
2013-02-05 03:28:00,19.4,18.4,29.69,WNW,292,0.0,-999.0,96,-99.99,,,0.00,Acu-Link.com,2013-02-05 09:28:00,
2013-02-05 03:44:00,19.8,18.6,29.69,WNW,292,0.0,-999.0,95,-99.99,,,0.00,Acu-Link.com,2013-02-05 09:44:00,
2013-02-05 03:59:00,19.9,18.7,29.69,WNW,292,0.0,-999.0,95,-99.99,,,0.00,Acu-Link.com,2013-02-05 09:59:00,
2013-02-05 04:14:00,20.7,19.3,29.70,WNW,292,0.0,-999.0,94,-99.99,,,0.00,Acu-Link.com,2013-02-05 10:14:00,
2013-02-05 04:30:00,21.0,19.6,29.70,WNW,292,0.0,-999.0,94,-99.99,,,0.00,Acu-Link.com,2013-02-05 10:30:00,
2013-02-05 04:45:00,21.2,19.5,29.69,WNW,292,0.0,-999.0,93,-99.99,,,0.00,Acu-Link.com,2013-02-05 10:45:00,
2013-02-05 05:00:00,21.4,19.7,29.69,SSW,202,0.0,-999.0,93,-99.99,,,0.00,Acu-Link.com,2013-02-05 11:00:00,
2013-02-05 05:16:00,21.6,19.9,29.69,SSW,202,0.0,-999.0,93,-99.99,,,0.00,Acu-Link.com,2013-02-05 11:16:00,
2013-02-05 05:31:00,21.7,20.0,29.68,South,180,1.7,-999.0,93,-99.99,,,0.00,Acu-Link.com,2013-02-05 11:31:00,
2013-02-05 05:46:00,21.9,20.2,29.67,SSW,202,0.0,-999.0,93,-99.99,,,0.00,Acu-Link.com,2013-02-05 11:46:00,
2013-02-05 06:01:00,22.3,20.3,29.67,SW,225,1.7,-999.0,92,-99.99,,,0.00,Acu-Link.com,2013-02-05 12:01:00,
2013-02-05 06:17:00,22.3,20.3,29.65,South,180,2.7,-999.0,92,-99.99,,,0.00,Acu-Link.com,2013-02-05 12:17:00,
2013-02-05 06:32:00,22.5,20.5,29.66,South,180,1.7,-999.0,92,-99.99,,,0.00,Acu-Link.com,2013-02-05 12:32:00,
2013-02-05 06:47:00,22.6,20.6,29.66,South,180,0.0,-999.0,92,-99.99,,,0.00,Acu-Link.com,2013-02-05 12:47:00,
2013-02-05 07:03:00,23.0,20.8,29.67,SSW,202,2.2,-999.0,91,-99.99,,,0.00,Acu-Link.com,2013-02-05 13:03:00,
2013-02-05 07:18:00,23.2,21.0,29.68,West,270,0.0,-999.0,91,-99.99,,,0.00,Acu-Link.com,2013-02-05 13:18:00,
2013-02-05 07:33:00,23.5,21.3,29.68,SSW,202,3.2,-999.0,91,-99.99,,,0.00,Acu-Link.com,2013-02-05 13:33:00,
2013-02-05 07:49:00,24.1,21.6,29.68,SSW,202,2.7,-999.0,90,-99.99,,,0.00,Acu-Link.com,2013-02-05 13:49:00,
2013-02-05 08:04:00,24.6,22.1,29.66,South,180,4.2,-999.0,90,-99.99,,,0.00,Acu-Link.com,2013-02-05 14:04:00,
2013-02-05 08:19:00,25.0,22.2,29.65,SSW,202,2.7,-999.0,89,-99.99,,,0.00,Acu-Link.com,2013-02-05 14:19:00,
2013-02-05 08:34:00,25.9,22.8,29.66,South,180,3.2,-999.0,88,-99.99,,,0.00,Acu-Link.com,2013-02-05 14:34:00,
2013-02-05 08:49:00,27.0,23.4,29.65,South,180,3.7,-999.0,86,-99.99,,,0.00,Acu-Link.com,2013-02-05 14:49:00,
2013-02-05 09:05:00,27.7,23.8,29.65,South,180,3.7,-999.0,85,-99.99,,,0.00,Acu-Link.com,2013-02-05 15:05:00,
2013-02-05 09:20:00,28.0,24.1,29.65,South,180,5.3,-999.0,85,-99.99,,,0.00,Acu-Link.com,2013-02-05 15:20:00,
2013-02-05 09:35:00,28.6,24.4,29.64,SSW,202,7.8,-999.0,84,-99.99,,,0.00,Acu-Link.com,2013-02-05 15:35:00,
2013-02-05 09:51:00,29.3,24.5,29.64,WNW,292,5.8,-999.0,82,-99.99,,,0.00,Acu-Link.com,2013-02-05 15:51:00,
2013-02-05 10:06:00,29.8,24.7,29.65,South,180,8.9,-999.0,81,-99.99,,,0.00,Acu-Link.com,2013-02-05 16:06:00,
2013-02-05 10:21:00,30.2,25.1,29.64,SSW,202,7.8,-999.0,81,-99.99,,,0.00,Acu-Link.com,2013-02-05 16:21:00,
2013-02-05 10:37:00,30.9,25.5,29.63,South,180,5.8,-999.0,80,-99.99,,,0.00,Acu-Link.com,2013-02-05 16:37:00,
2013-02-05 10:52:00,32.2,26.4,29.64,SSW,202,5.8,-999.0,79,-99.99,,,0.00,Acu-Link.com,2013-02-05 16:52:00,
2013-02-05 11:07:00,33.3,26.9,29.63,West,270,4.2,-999.0,77,-99.99,,,0.00,Acu-Link.com,2013-02-05 17:07:00,
2013-02-05 11:23:00,33.8,27.1,29.62,South,180,6.8,-999.0,76,-99.99,,,0.00,Acu-Link.com,2013-02-05 17:23:00,
2013-02-05 11:38:00,35.6,28.1,29.61,SSW,202,4.7,-999.0,74,-99.99,,,0.00,Acu-Link.com,2013-02-05 17:38:00,
2013-02-05 11:53:00,36.1,28.3,29.60,SSW,202,2.2,-999.0,73,-99.99,,,0.00,Acu-Link.com,2013-02-05 17:53:00,
2013-02-05 12:08:00,36.7,28.5,29.60,West,270,2.2,-999.0,72,-99.99,,,0.00,Acu-Link.com,2013-02-05 18:08:00,
2013-02-05 12:24:00,36.3,28.8,29.60,WNW,292,1.7,-999.0,74,-99.99,,,0.00,Acu-Link.com,2013-02-05 18:24:00,
2013-02-05 12:39:00,38.3,30.1,29.60,WSW,247,2.2,-999.0,72,-99.99,,,0.00,Acu-Link.com,2013-02-05 18:39:00,
2013-02-05 12:56:00,38.5,29.6,29.61,WSW,247,0.0,-999.0,70,-99.99,,,0.00,Acu-Link.com,2013-02-05 18:56:00,
2013-02-05 13:11:00,38.3,30.1,29.60,SE,135,3.2,-999.0,72,-99.99,,,0.00,Acu-Link.com,2013-02-05 19:11:00,
2013-02-05 13:26:00,38.7,30.8,29.61,West,270,4.7,-999.0,73,-99.99,,,0.01,Acu-Link.com,2013-02-05 19:26:00,
2013-02-05 13:41:00,38.1,30.6,29.60,WNW,292,2.2,-999.0,74,-99.99,,,0.01,Acu-Link.com,2013-02-05 19:41:00,
2013-02-05 13:57:00,38.7,30.8,29.61,WNW,292,2.7,-999.0,73,-99.99,,,0.02,Acu-Link.com,2013-02-05 19:57:00,
2013-02-05 14:12:00,39.0,31.4,29.62,NW,315,2.2,-999.0,74,-99.99,,,0.02,Acu-Link.com,2013-02-05 20:12:00,
2013-02-05 14:28:00,39.6,31.3,29.62,West,270,3.7,-999.0,72,-99.99,,,0.03,Acu-Link.com,2013-02-05 20:28:00,
2013-02-05 14:44:00,39.7,31.8,29.63,WNW,292,6.3,-999.0,73,-99.99,,,0.03,Acu-Link.com,2013-02-05 20:44:00,
2013-02-05 14:59:00,40.5,32.2,29.64,NNW,337,4.2,-999.0,72,-99.99,,,0.03,Acu-Link.com,2013-02-05 20:59:00,
2013-02-05 15:14:00,39.2,31.3,29.65,NW,315,6.8,-999.0,73,-99.99,,,0.03,Acu-Link.com,2013-02-05 21:14:00,
2013-02-05 15:30:00,38.8,30.9,29.66,West,270,3.2,-999.0,73,-99.99,,,0.03,Acu-Link.com,2013-02-05 21:30:00,
2013-02-05 15:45:00,38.5,30.9,29.66,WNW,292,6.8,-999.0,74,-99.99,,,0.03,Acu-Link.com,2013-02-05 21:45:00,
2013-02-05 16:00:00,37.8,30.9,29.67,West,270,2.7,-999.0,76,-99.99,,,0.03,Acu-Link.com,2013-02-05 22:00:00,
2013-02-05 16:15:00,37.4,30.9,29.68,WNW,292,2.7,-999.0,77,-99.99,,,0.03,Acu-Link.com,2013-02-05 22:15:00,
2013-02-05 16:31:00,36.9,30.4,29.69,NW,315,4.7,-999.0,77,-99.99,,,0.03,Acu-Link.com,2013-02-05 22:31:00,
2013-02-05 16:46:00,36.0,30.1,29.69,NW,315,0.0,-999.0,79,-99.99,,,0.03,Acu-Link.com,2013-02-05 22:46:00,
2013-02-05 17:01:00,35.4,30.2,29.71,NNW,337,0.0,-999.0,81,-99.99,,,0.03,Acu-Link.com,2013-02-05 23:01:00,
2013-02-05 17:17:00,35.2,30.0,29.72,WNW,292,4.7,-999.0,81,-99.99,,,0.03,Acu-Link.com,2013-02-05 23:17:00,
2013-02-05 17:32:00,35.2,30.0,29.72,WNW,292,0.0,-999.0,81,-99.99,,,0.03,Acu-Link.com,2013-02-05 23:32:00,
2013-02-05 17:47:00,34.9,29.4,29.74,WNW,292,6.8,-999.0,80,-99.99,,,0.03,Acu-Link.com,2013-02-05 23:47:00,
2013-02-05 18:02:00,34.2,29.0,29.75,WNW,292,5.8,-999.0,81,-99.99,,,0.03,Acu-Link.com,2013-02-06 00:02:00,
2013-02-05 18:18:00,34.0,28.8,29.76,NNE,22,6.8,-999.0,81,-99.99,,,0.03,Acu-Link.com,2013-02-06 00:18:00,
2013-02-05 18:33:00,33.8,28.9,29.77,NW,315,2.7,-999.0,82,-99.99,,,0.03,Acu-Link.com,2013-02-06 00:33:00,
2013-02-05 18:48:00,33.4,28.8,29.78,NW,315,6.8,-999.0,83,-99.99,,,0.03,Acu-Link.com,2013-02-06 00:48:00,
2013-02-05 19:03:00,33.3,28.7,29.78,NW,315,1.7,-999.0,83,-99.99,,,0.03,Acu-Link.com,2013-02-06 01:03:00,
2013-02-05 19:19:00,33.1,28.5,29.78,NW,315,3.2,-999.0,83,-99.99,,,0.03,Acu-Link.com,2013-02-06 01:19:00,
2013-02-05 19:34:00,32.9,28.6,29.79,NW,315,0.0,-999.0,84,-99.99,,,0.03,Acu-Link.com,2013-02-06 01:34:00,
2013-02-05 19:49:00,32.7,28.7,29.80,NW,315,0.0,-999.0,85,-99.99,,,0.03,Acu-Link.com,2013-02-06 01:49:00,
2013-02-05 20:05:00,32.7,28.7,29.80,NW,315,0.0,-999.0,85,-99.99,,,0.03,Acu-Link.com,2013-02-06 02:05:00,
2013-02-05 20:20:00,32.5,28.5,29.80,NW,315,0.0,-999.0,85,-99.99,,,0.03,Acu-Link.com,2013-02-06 02:20:00,
2013-02-05 20:35:00,32.5,28.5,29.80,NW,315,0.0,-999.0,85,-99.99,,,0.03,Acu-Link.com,2013-02-06 02:35:00,
2013-02-05 20:50:00,32.5,28.5,29.81,WNW,292,0.0,-999.0,85,-99.99,,,0.03,Acu-Link.com,2013-02-06 02:50:00,
2013-02-05 21:05:00,32.5,28.5,29.81,WNW,292,0.0,-999.0,85,-99.99,,,0.03,Acu-Link.com,2013-02-06 03:05:00,
2013-02-05 21:21:00,32.5,28.8,29.82,WNW,292,0.0,-999.0,86,-99.99,,,0.03,Acu-Link.com,2013-02-06 03:21:00,
2013-02-05 21:36:00,32.7,29.0,29.83,WNW,292,0.0,-999.0,86,-99.99,,,0.03,Acu-Link.com,2013-02-06 03:36:00,
2013-02-05 21:51:00,32.7,29.0,29.84,WNW,292,0.0,-999.0,86,-99.99,,,0.03,Acu-Link.com,2013-02-06 03:51:00,
2013-02-05 22:06:00,32.7,29.0,29.84,WNW,292,0.0,-999.0,86,-99.99,,,0.03,Acu-Link.com,2013-02-06 04:06:00,
2013-02-05 22:22:00,32.7,28.7,29.85,NW,315,2.7,-999.0,85,-99.99,,,0.03,Acu-Link.com,2013-02-06 04:22:00,
2013-02-05 22:37:00,32.9,28.3,29.85,WNW,292,3.2,-999.0,83,-99.99,,,0.03,Acu-Link.com,2013-02-06 04:37:00,
2013-02-05 22:52:00,32.9,28.0,29.85,NW,315,4.7,-999.0,82,-99.99,,,0.03,Acu-Link.com,2013-02-06 04:52:00,
2013-02-05 23:08:00,31.8,27.2,29.85,SE,135,0.0,-999.0,83,-99.99,,,0.03,Acu-Link.com,2013-02-06 05:08:00,
2013-02-05 23:23:00,30.7,26.7,29.86,West,270,0.0,-999.0,85,-99.99,,,0.03,Acu-Link.com,2013-02-06 05:23:00,
2013-02-05 23:38:00,30.0,26.3,29.87,NW,315,0.0,-999.0,86,-99.99,,,0.03,Acu-Link.com,2013-02-06 05:38:00,
2013-02-05 23:53:00,30.4,26.4,29.87,SE,135,0.0,-999.0,85,-99.99,,,0.03,Acu-Link.com,2013-02-06 05:53:00,